Archival Weather

Snohomish County (Paine Fld)

Everett, Washington (KPAE)

Report from: Saturday, October 28, 2023 7:53 AM PDT
Current time: Friday, June 14, 2024 5:55 AM PDT

Current weather – Weather history – Daily summaries
Weather forecast

Temperature0.6°C (33.1°F)
Wind chill-1.1°C (30.0°F)
Dew point-3.9°C (25.0°F)
Winds 3 kts (1.5 m/s, 3.5 mph) East-Southeast (110°)
Visibility10 mi. (16.1 km)
Clouds Sky clear
Altimeter30.51 in.Hg (1033 mB)
Relative humidity72 %
Density altitude-2,385 ft. (-727 m)
Sea-level pressure103.4 kPa (1034 mB, 30.53 in.Hg)
Remarks Automated weather observing station with precipitation discriminator
Pressure rising, then falling
Flight conditions Visual Meteorological Conditions
Raw dataKPAE 281453Z 11003KT 10SM CLR 01/M04 A3051 RMK AO2 SLP339 T00061039 50004
An error has occurred. This application may no longer respond until reloaded. Reload 🗙